createdAt,value
2022-08-10T00:01:05.889Z,4.45
2022-08-10T00:03:34.513Z,4.03
2022-08-10T00:06:03.152Z,5.38
2022-08-10T00:08:31.736Z,5.30
2022-08-10T00:11:00.419Z,4.38
2022-08-10T00:13:30.600Z,4.80
2022-08-10T00:15:59.264Z,3.50
2022-08-10T00:18:34.921Z,3.72
2022-08-10T00:21:05.071Z,5.40
2022-08-10T00:23:33.765Z,4.75
2022-08-10T00:26:02.668Z,5.28
2022-08-10T00:28:31.575Z,4.72
2022-08-10T00:31:00.255Z,3.85
2022-08-10T00:33:30.402Z,3.47
2022-08-10T00:35:59.054Z,3.72
2022-08-10T00:38:27.651Z,4.75
2022-08-10T00:40:56.312Z,5.40
2022-08-10T00:43:25.332Z,5.88
2022-08-10T00:45:59.824Z,4.28
2022-08-10T00:48:31.166Z,4.03
2022-08-10T00:51:00.002Z,7.37
2022-08-10T00:53:28.921Z,4.75
2022-08-10T00:56:38.408Z,4.18
2022-08-10T00:58:46.935Z,3.92
2022-08-10T01:02:10.673Z,3.60
2022-08-10T01:04:36.636Z,4.35
2022-08-10T01:09:30.206Z,4.35
2022-08-10T01:12:39.426Z,4.57
2022-08-10T01:14:54.839Z,4.72
2022-08-10T01:17:50.643Z,3.97
2022-08-10T01:20:30.749Z,5.13
2022-08-10T01:23:23.824Z,4.07
2022-08-10T01:26:11.494Z,4.13
2022-08-10T01:28:47.944Z,4.80
2022-08-10T01:31:18.749Z,3.80
2022-08-10T01:33:58.694Z,3.80
2022-08-10T01:36:34.774Z,5.32
2022-08-10T01:39:04.905Z,3.47
2022-08-10T01:41:45.646Z,3.30
2022-08-10T01:44:16.807Z,6.00
2022-08-10T01:46:56.950Z,3.88
2022-08-10T01:49:28.847Z,4.13
2022-08-10T01:52:00.486Z,2.95
2022-08-10T01:54:30.707Z,3.83
2022-08-10T01:57:00.261Z,4.30
2022-08-10T01:59:33.023Z,3.20
2022-08-10T02:02:05.014Z,5.55
2022-08-10T02:04:36.229Z,4.15
2022-08-10T02:07:05.690Z,4.97
2022-08-10T02:09:36.454Z,4.53
2022-08-10T02:12:08.794Z,4.03
2022-08-10T02:14:39.226Z,3.88
2022-08-10T02:17:58.183Z,3.65
2022-08-10T02:22:38.036Z,6.50
2022-08-10T02:25:08.972Z,3.78
2022-08-10T02:27:38.262Z,5.07
2022-08-10T02:30:07.481Z,3.95
2022-08-10T02:32:38.798Z,5.03
2022-08-10T02:35:11.365Z,3.97
2022-08-10T02:37:52.284Z,5.55
2022-08-10T02:45:15.845Z,4.32
2022-08-10T02:45:17.971Z,5.47
2022-08-10T02:46:05.400Z,6.40
2022-08-10T02:48:39.565Z,3.13
2022-08-10T02:51:11.256Z,5.30
2022-08-10T02:56:23.060Z,3.75
2022-08-10T02:58:55.212Z,4.60
2022-08-10T03:01:25.960Z,3.58
2022-08-10T03:03:59.224Z,3.70
2022-08-10T03:06:30.633Z,4.75
2022-08-10T03:09:00.458Z,4.57
2022-08-10T03:12:34.995Z,3.75
2022-08-10T03:14:20.706Z,3.17
2022-08-10T03:16:49.662Z,4.18
2022-08-10T03:20:33.994Z,4.00
2022-08-10T03:24:38.922Z,4.20
2022-08-10T03:27:07.903Z,4.70
2022-08-10T03:30:23.442Z,5.55
2022-08-10T03:32:25.676Z,4.05
2022-08-10T03:34:56.052Z,5.75
2022-08-10T03:37:25.743Z,3.40
2022-08-10T03:39:54.750Z,4.35
2022-08-10T03:42:24.399Z,3.50
2022-08-10T03:44:53.348Z,3.40
2022-08-10T03:47:23.166Z,3.30
2022-08-10T03:49:52.510Z,5.18
2022-08-10T03:52:22.774Z,4.85
2022-08-10T03:54:52.723Z,5.95
2022-08-10T03:57:21.764Z,3.80
2022-08-10T03:59:50.558Z,4.35
2022-08-10T04:02:41.647Z,3.33
2022-08-10T04:05:08.401Z,3.30
2022-08-10T04:07:38.677Z,3.90
2022-08-10T04:10:07.683Z,3.45
2022-08-10T04:12:41.818Z,4.00
2022-08-10T04:15:10.777Z,3.72
2022-08-10T04:18:03.908Z,3.65
2022-08-10T04:20:34.983Z,3.55
2022-08-10T04:23:07.228Z,4.63
2022-08-10T04:25:36.481Z,4.60
2022-08-10T04:28:05.339Z,5.35
2022-08-10T04:30:34.314Z,3.45
2022-08-10T04:33:04.311Z,5.05
2022-08-10T04:35:33.952Z,3.05
2022-08-10T04:38:03.311Z,4.72
2022-08-10T04:40:33.455Z,3.55
2022-08-10T04:43:09.019Z,4.47
2022-08-10T04:45:47.312Z,3.75
2022-08-10T04:48:40.466Z,3.33
2022-08-10T04:51:11.000Z,4.20
2022-08-10T04:54:03.226Z,5.88
2022-08-10T04:56:34.064Z,4.18
2022-08-10T04:59:02.792Z,4.55
2022-08-10T05:02:09.874Z,4.70
2022-08-10T05:04:34.067Z,3.45
2022-08-10T05:07:11.261Z,4.45
2022-08-10T05:10:01.047Z,4.35
2022-08-10T05:12:36.269Z,3.75
2022-08-10T05:15:05.986Z,4.75
2022-08-10T05:17:35.856Z,5.25
2022-08-10T05:20:06.826Z,4.30
2022-08-10T05:22:40.425Z,3.33
2022-08-10T05:25:10.697Z,3.70
2022-08-10T05:27:41.047Z,3.03
2022-08-10T05:30:10.734Z,4.72
2022-08-10T05:32:56.059Z,4.15
2022-08-10T05:35:27.280Z,5.50
2022-08-10T05:38:12.902Z,3.83
2022-08-10T05:40:46.702Z,3.50
2022-08-10T05:43:19.195Z,3.28
2022-08-10T05:46:17.736Z,3.10
2022-08-10T05:48:41.937Z,4.28
2022-08-10T05:51:26.652Z,3.53
2022-08-10T05:54:00.959Z,3.83
2022-08-10T05:56:56.843Z,3.50
2022-08-10T06:00:34.657Z,3.83
2022-08-10T06:02:33.399Z,4.20
2022-08-10T06:05:08.197Z,4.40
2022-08-10T06:07:39.049Z,5.35
2022-08-10T06:10:10.416Z,4.47
2022-08-10T06:12:54.956Z,4.88
2022-08-10T06:15:51.538Z,3.25
2022-08-10T06:18:15.470Z,4.70
2022-08-10T06:20:44.844Z,4.75
2022-08-10T06:23:13.753Z,5.05
2022-08-10T06:26:10.544Z,4.97
2022-08-10T06:28:33.039Z,4.13
2022-08-10T06:31:03.656Z,5.55
2022-08-10T06:33:33.447Z,4.30
2022-08-10T06:36:03.568Z,4.80
2022-08-10T06:38:33.914Z,4.20
2022-08-10T06:41:04.956Z,3.75
2022-08-10T06:43:34.327Z,4.72
2022-08-10T06:46:08.015Z,6.05
2022-08-10T06:48:39.051Z,4.07
2022-08-10T06:51:08.917Z,3.60
2022-08-10T06:53:53.744Z,3.00
2022-08-10T06:56:36.613Z,3.53
2022-08-10T06:59:13.412Z,5.03
2022-08-10T07:01:55.063Z,5.32
2022-08-10T07:04:32.554Z,6.38
2022-08-10T07:07:04.105Z,3.63
2022-08-10T07:09:34.455Z,6.30
2022-08-10T07:12:08.000Z,4.05
2022-08-10T07:14:39.281Z,5.72
2022-08-10T07:17:15.329Z,4.95
2022-08-10T07:19:50.187Z,5.93
2022-08-10T07:23:01.255Z,4.60
2022-08-10T07:25:13.158Z,6.72
2022-08-10T07:27:59.932Z,9.07
2022-08-10T07:30:30.824Z,7.13
2022-08-10T07:33:02.160Z,10.55
2022-08-10T07:35:41.451Z,10.75
2022-08-10T07:38:13.492Z,16.33
2022-08-10T07:40:42.548Z,13.48
2022-08-10T07:43:11.751Z,11.65
2022-08-10T07:45:41.066Z,12.48
2022-08-10T07:48:13.832Z,13.35
2022-08-10T07:50:42.988Z,13.73
2022-08-10T07:53:14.616Z,8.40
2022-08-10T07:58:33.319Z,11.15
2022-08-10T08:01:02.562Z,9.05
2022-08-10T08:03:33.217Z,11.82
2022-08-10T08:06:09.098Z,4.20
2022-08-10T08:08:40.988Z,4.63
2022-08-10T08:11:09.920Z,7.43
2022-08-10T08:13:56.089Z,4.15
2022-08-10T08:16:25.909Z,3.80
2022-08-10T08:19:26.590Z,4.65
2022-08-10T08:24:11.139Z,5.63
2022-08-10T08:24:37.587Z,4.85
2022-08-10T08:27:07.843Z,3.67
2022-08-10T08:29:38.370Z,3.20
2022-08-10T08:32:08.266Z,5.75
2022-08-10T08:34:39.497Z,5.18
2022-08-10T08:37:10.711Z,3.90
2022-08-10T08:39:41.557Z,5.30
2022-08-10T08:42:20.472Z,6.28
2022-08-10T08:44:58.942Z,3.10
2022-08-10T08:48:04.021Z,5.60
2022-08-10T08:50:34.904Z,6.90
2022-08-10T08:53:21.597Z,4.47
2022-08-10T08:56:05.515Z,5.45
2022-08-10T08:58:47.667Z,5.38
2022-08-10T09:01:40.408Z,4.03
2022-08-10T09:04:21.141Z,5.00
2022-08-10T09:07:39.475Z,4.30
2022-08-10T09:10:11.253Z,4.43
2022-08-10T09:15:11.215Z,4.97
2022-08-10T09:18:04.507Z,3.50
2022-08-10T09:20:35.664Z,4.68
2022-08-10T09:23:09.785Z,4.20
2022-08-10T09:25:43.118Z,3.25
2022-08-10T09:28:13.680Z,2.33
2022-08-10T09:31:03.594Z,4.60
2022-08-10T09:36:24.059Z,3.75
2022-08-10T09:36:33.966Z,4.22
2022-08-10T09:39:09.906Z,5.10
2022-08-10T09:41:47.634Z,3.88
2022-08-10T09:44:19.917Z,3.25
2022-08-10T09:46:53.281Z,4.47
2022-08-10T09:49:52.871Z,3.05
2022-08-10T09:52:17.081Z,2.33
2022-08-10T09:54:50.253Z,4.85
2022-08-10T09:57:46.375Z,3.28
2022-08-10T10:00:12.906Z,3.47
2022-08-10T10:02:48.931Z,4.20
2022-08-10T10:05:24.808Z,3.55
2022-08-10T10:07:55.671Z,2.40
2022-08-10T10:10:26.218Z,2.07
2022-08-10T10:12:58.561Z,3.45
2022-08-10T10:15:33.075Z,2.70
2022-08-10T10:18:20.105Z,2.42
2022-08-10T10:20:52.490Z,3.75
2022-08-10T10:23:28.285Z,3.20
2022-08-10T10:26:04.915Z,4.97
2022-08-10T10:29:19.590Z,2.65
2022-08-10T10:31:36.011Z,4.35
2022-08-10T10:34:08.696Z,2.92
2022-08-10T10:36:37.453Z,4.75
2022-08-10T10:39:06.377Z,2.72
2022-08-10T10:41:55.994Z,2.33
2022-08-10T10:44:42.349Z,4.65
2022-08-10T10:47:21.516Z,2.35
2022-08-10T10:49:53.810Z,3.30
2022-08-10T10:52:30.050Z,2.63
2022-08-10T10:55:05.073Z,3.60
2022-08-10T10:57:59.552Z,2.45
2022-08-10T11:00:36.553Z,3.78
2022-08-10T11:03:12.821Z,3.03
2022-08-10T11:05:47.315Z,5.28
2022-08-10T11:08:19.256Z,3.60
2022-08-10T11:11:00.036Z,3.53
2022-08-10T11:14:25.409Z,4.22
2022-08-10T11:16:29.844Z,2.78
2022-08-10T11:19:00.903Z,4.28
2022-08-10T11:21:38.575Z,3.80
2022-08-10T11:24:47.531Z,2.92
2022-08-10T11:27:03.238Z,3.88
2022-08-10T11:29:35.461Z,3.10
2022-08-10T11:32:08.698Z,2.90
2022-08-10T11:35:11.296Z,3.05
2022-08-10T11:38:32.815Z,3.25
2022-08-10T11:40:40.638Z,6.60
2022-08-10T11:43:12.527Z,3.38
2022-08-10T11:45:52.252Z,3.75
2022-08-10T11:51:16.076Z,3.67
2022-08-10T11:53:48.098Z,3.67
2022-08-10T11:56:21.984Z,2.47
2022-08-10T11:59:17.136Z,3.80
2022-08-10T12:01:46.471Z,3.20
2022-08-10T12:04:15.814Z,2.60
2022-08-10T12:06:56.009Z,2.75
2022-08-10T12:10:09.588Z,2.97
2022-08-10T12:12:15.294Z,4.07
2022-08-10T12:14:46.877Z,4.57
2022-08-10T12:17:17.771Z,3.90
2022-08-10T12:19:59.758Z,6.97
2022-08-10T12:22:36.201Z,2.33
2022-08-10T12:25:07.033Z,6.95
2022-08-10T12:27:38.807Z,2.80
2022-08-10T12:30:08.513Z,3.55
2022-08-10T12:32:43.486Z,3.05
2022-08-10T12:35:21.685Z,2.22
2022-08-10T12:37:58.565Z,3.05
2022-08-10T12:40:37.001Z,3.72
2022-08-10T12:44:04.215Z,2.08
2022-08-10T12:46:06.321Z,3.47
2022-08-10T12:48:38.248Z,3.17
2022-08-10T12:51:10.871Z,2.40
2022-08-10T12:53:49.323Z,2.70
2022-08-10T12:56:23.018Z,3.78
2022-08-10T12:58:57.627Z,3.70
2022-08-10T13:02:10.070Z,2.67
2022-08-10T13:04:24.380Z,3.22
2022-08-10T13:06:53.597Z,3.45
2022-08-10T13:09:25.068Z,2.65
2022-08-10T13:12:37.940Z,2.60
2022-08-10T13:14:49.571Z,2.47
2022-08-10T13:17:22.917Z,2.63
2022-08-10T13:19:55.230Z,1.77
2022-08-10T13:22:27.555Z,3.25
2022-08-10T13:25:00.287Z,2.78
2022-08-10T13:28:00.482Z,4.10
2022-08-10T13:30:37.319Z,5.03
2022-08-10T13:33:07.624Z,3.22
2022-08-10T13:35:36.769Z,3.20
2022-08-10T13:38:05.672Z,4.10
2022-08-10T13:40:35.955Z,2.72
2022-08-10T13:43:07.985Z,2.80
2022-08-10T13:45:44.999Z,2.90
2022-08-10T13:48:19.629Z,2.67
2022-08-10T13:50:48.883Z,3.70
2022-08-10T13:53:19.544Z,3.25
2022-08-10T13:55:55.480Z,2.42
2022-08-10T13:58:26.646Z,2.72
2022-08-10T14:00:56.157Z,3.60
2022-08-10T14:03:25.242Z,3.13
2022-08-10T14:05:54.772Z,3.90
2022-08-10T14:08:24.991Z,4.47
2022-08-10T14:11:09.183Z,3.85
2022-08-10T14:13:42.730Z,3.00
2022-08-10T14:16:12.676Z,2.50
2022-08-10T14:18:42.298Z,3.58
2022-08-10T14:21:11.167Z,3.30
2022-08-10T14:23:43.179Z,3.10
2022-08-10T14:26:26.078Z,1.98
2022-08-10T14:28:56.230Z,3.03
2022-08-10T14:31:27.414Z,1.67
2022-08-10T14:33:58.096Z,4.20
2022-08-10T14:36:31.309Z,6.22
2022-08-10T14:39:00.390Z,4.40
2022-08-10T14:42:01.130Z,2.10
2022-08-10T14:44:21.000Z,3.67
2022-08-10T14:46:51.658Z,2.72
2022-08-10T14:49:25.286Z,3.22
2022-08-10T14:51:59.855Z,2.38
2022-08-10T14:54:29.769Z,4.43
2022-08-10T14:57:10.832Z,2.60
2022-08-10T15:00:25.227Z,2.10
2022-08-10T15:02:39.645Z,3.75
2022-08-10T15:05:20.212Z,2.15
2022-08-10T15:07:58.771Z,2.50
2022-08-10T15:10:29.257Z,2.90
2022-08-10T15:12:59.631Z,3.50
2022-08-10T15:15:31.295Z,2.75
2022-08-10T15:18:19.592Z,2.42
2022-08-10T15:20:57.028Z,2.10
2022-08-10T15:23:29.760Z,2.45
2022-08-10T15:26:03.819Z,1.85
2022-08-10T15:29:09.707Z,3.85
2022-08-10T15:31:35.308Z,2.05
2022-08-10T15:34:22.189Z,3.70
2022-08-10T15:37:40.821Z,4.45
2022-08-10T15:40:26.001Z,3.30
2022-08-10T15:42:58.515Z,3.58
2022-08-10T15:45:28.834Z,2.03
2022-08-10T15:48:03.435Z,2.38
2022-08-10T15:50:34.775Z,5.15
2022-08-10T15:53:16.023Z,1.88
2022-08-10T15:55:48.856Z,4.85
2022-08-10T15:58:38.658Z,3.03
2022-08-10T16:02:12.293Z,4.07
2022-08-10T16:04:08.316Z,2.13
2022-08-10T16:06:40.593Z,3.40
2022-08-10T16:12:00.613Z,3.47
2022-08-10T16:14:31.932Z,2.50
2022-08-10T16:17:02.278Z,3.03
2022-08-10T16:19:31.671Z,2.22
2022-08-10T16:22:03.095Z,2.95
2022-08-10T16:24:52.452Z,2.67
2022-08-10T16:27:22.425Z,2.88
2022-08-10T16:29:55.858Z,3.42
2022-08-10T16:32:27.345Z,5.95
2022-08-10T16:34:57.344Z,3.75
2022-08-10T16:37:57.957Z,2.83
2022-08-10T16:40:22.270Z,3.42
2022-08-10T16:42:51.327Z,3.28
2022-08-10T16:45:21.466Z,4.20
2022-08-10T16:47:52.977Z,6.00
2022-08-10T16:50:24.743Z,2.88
2022-08-10T16:52:53.973Z,2.78
2022-08-10T16:55:24.532Z,2.63
2022-08-10T16:58:14.350Z,2.63
2022-08-10T17:00:43.329Z,3.25
2022-08-10T17:03:22.924Z,3.42
2022-08-10T17:06:10.909Z,4.00
2022-08-10T17:08:48.059Z,4.65
2022-08-10T17:11:18.532Z,3.20
2022-08-10T17:13:47.395Z,5.63
2022-08-10T17:16:17.424Z,3.25
2022-08-10T17:18:48.047Z,2.58
2022-08-10T17:21:19.792Z,2.35
2022-08-10T17:26:19.643Z,3.28
2022-08-10T17:28:58.989Z,4.25
2022-08-10T17:31:54.107Z,2.53
2022-08-10T17:34:25.367Z,2.90
2022-08-10T17:36:58.166Z,2.80
2022-08-10T17:39:30.794Z,2.78
2022-08-10T17:42:02.037Z,4.32
2022-08-10T17:44:31.662Z,2.65
2022-08-10T17:47:10.789Z,3.83
2022-08-10T17:49:42.027Z,3.10
2022-08-10T17:52:12.239Z,2.80
2022-08-10T17:54:44.190Z,3.17
2022-08-10T17:57:14.174Z,2.60
2022-08-10T17:59:43.037Z,2.75
2022-08-10T18:02:13.205Z,2.28
2022-08-10T18:04:47.905Z,7.80
2022-08-10T18:07:16.890Z,2.63
2022-08-10T18:09:49.829Z,2.78
2022-08-10T18:12:24.096Z,2.65
2022-08-10T18:15:01.014Z,2.93
2022-08-10T18:17:38.507Z,4.30
2022-08-10T18:20:11.260Z,3.63
2022-08-10T18:22:44.869Z,4.97
2022-08-10T18:25:18.577Z,4.28
2022-08-10T18:28:03.575Z,4.78
2022-08-10T18:30:36.394Z,3.80
2022-08-10T18:35:35.597Z,3.95
2022-08-10T18:38:05.095Z,4.18
2022-08-10T18:40:35.783Z,3.75
2022-08-10T18:45:44.146Z,5.20
2022-08-10T18:48:17.735Z,3.60
2022-08-10T18:50:49.408Z,3.33
2022-08-10T18:56:09.743Z,4.00
2022-08-10T18:58:52.846Z,4.18
2022-08-10T19:01:34.702Z,20.65
2022-08-10T19:06:54.849Z,254.10
2022-08-10T19:09:47.411Z,244.38
2022-08-10T19:12:30.411Z,201.43
2022-08-10T19:15:06.573Z,198.65
2022-08-10T19:18:03.072Z,161.35
2022-08-10T19:20:39.776Z,89.47
2022-08-10T19:23:18.685Z,87.60
2022-08-10T19:26:42.686Z,155.82
2022-08-10T19:30:09.665Z,200.45
2022-08-10T19:33:08.228Z,221.13
2022-08-10T19:36:03.929Z,145.38
2022-08-10T19:38:46.995Z,236.15
2022-08-10T19:41:31.991Z,138.07
2022-08-10T19:44:09.861Z,270.20
2022-08-10T19:46:44.873Z,222.27
2022-08-10T19:49:28.162Z,230.13
2022-08-10T19:51:58.539Z,237.55
2022-08-10T19:54:34.321Z,271.35
2022-08-10T19:57:07.093Z,217.23
2022-08-10T20:00:16.346Z,163.80
2022-08-10T20:02:30.696Z,110.05
2022-08-10T20:05:04.541Z,81.53
2022-08-10T20:07:36.346Z,291.63
2022-08-10T20:10:10.526Z,182.20
2022-08-10T20:12:43.918Z,177.02
2022-08-10T20:15:17.445Z,196.38
2022-08-10T20:17:55.724Z,245.02
2022-08-10T20:20:30.675Z,144.07
2022-08-10T20:23:02.776Z,65.63
2022-08-10T20:25:33.127Z,53.58
2022-08-10T20:28:05.420Z,48.72
2022-08-10T20:30:35.036Z,42.25
2022-08-10T20:33:09.714Z,33.05
2022-08-10T20:35:47.537Z,25.52
2022-08-10T20:38:21.577Z,21.35
2022-08-10T20:40:59.151Z,18.67
2022-08-10T20:46:08.460Z,15.63
2022-08-10T20:48:41.760Z,13.98
2022-08-10T20:51:15.292Z,13.23
2022-08-10T20:53:46.560Z,11.65
2022-08-10T20:56:18.869Z,8.10
2022-08-10T20:59:08.946Z,10.10
2022-08-10T21:02:07.108Z,9.68
2022-08-10T21:04:45.379Z,7.15
2022-08-10T21:07:59.876Z,7.60
2022-08-10T21:10:25.534Z,6.53
2022-08-10T21:13:09.048Z,5.70
2022-08-10T21:15:47.102Z,8.73
2022-08-10T21:18:23.770Z,6.25
2022-08-10T21:21:02.855Z,5.85
2022-08-10T21:23:38.038Z,6.43
2022-08-10T21:26:10.662Z,6.43
2022-08-10T21:28:53.894Z,6.95
2022-08-10T21:31:31.497Z,5.70
2022-08-10T21:34:12.494Z,5.82
2022-08-10T21:36:44.455Z,4.65
2022-08-10T21:39:16.977Z,6.25
2022-08-10T21:42:14.616Z,5.55
2022-08-10T21:45:08.960Z,4.45
2022-08-10T21:48:05.219Z,5.22
2022-08-10T21:51:05.768Z,4.68
2022-08-10T21:53:54.806Z,5.20
2022-08-10T21:56:43.836Z,5.18
2022-08-10T21:59:34.769Z,4.05
2022-08-10T22:02:28.064Z,3.65
2022-08-10T22:05:18.931Z,5.38
2022-08-10T22:08:07.743Z,4.38
2022-08-10T22:11:02.063Z,5.38
2022-08-10T22:13:48.668Z,3.28
2022-08-10T22:16:41.416Z,3.72
2022-08-10T22:19:28.090Z,4.18
2022-08-10T22:22:27.679Z,4.00
2022-08-10T22:25:29.998Z,3.75
2022-08-10T22:28:18.402Z,4.10
2022-08-10T22:34:16.886Z,3.67
2022-08-10T22:37:15.571Z,3.58
2022-08-10T22:40:13.057Z,5.47
2022-08-10T22:43:10.540Z,5.05
2022-08-10T22:46:03.844Z,3.72
2022-08-10T22:48:51.866Z,5.43
2022-08-10T22:51:22.555Z,4.53
2022-08-10T22:54:10.301Z,7.53
2022-08-10T22:56:57.009Z,3.53
2022-08-10T22:59:28.231Z,5.20
2022-08-10T23:02:08.538Z,4.05
2022-08-10T23:04:44.995Z,3.67
2022-08-10T23:07:20.888Z,3.90
2022-08-10T23:09:52.801Z,4.25
2022-08-10T23:12:24.143Z,4.25
2022-08-10T23:15:12.629Z,6.38
2022-08-10T23:18:02.553Z,4.53
2022-08-10T23:20:31.958Z,4.30
2022-08-10T23:23:08.884Z,4.22
2022-08-10T23:25:56.803Z,3.95
2022-08-10T23:28:38.576Z,4.13
2022-08-10T23:33:38.765Z,4.28
2022-08-10T23:36:33.322Z,5.03
2022-08-10T23:39:24.366Z,3.75
2022-08-10T23:41:51.081Z,6.90
2022-08-10T23:44:23.436Z,4.03
2022-08-10T23:46:52.132Z,4.00
2022-08-10T23:49:23.281Z,5.00
2022-08-10T23:51:54.770Z,3.35
2022-08-10T23:54:25.332Z,4.80
2022-08-10T23:56:56.029Z,3.92
2022-08-10T23:59:25.601Z,3.85
